sensor_id;sensor_type;location;lat;lon;timestamp;pressure;altitude;pressure_sealevel;temperature;humidity
59435;BME280;45241;49.768;8.636;2023-04-10T00:02:06;100817.13;;;11.12;59.99
59435;BME280;45241;49.768;8.636;2023-04-10T00:04:32;100821.66;;;11.12;59.63
59435;BME280;45241;49.768;8.636;2023-04-10T00:06:57;100822.88;;;11.09;59.41
59435;BME280;45241;49.768;8.636;2023-04-10T00:09:22;100823.69;;;11.10;59.32
59435;BME280;45241;49.768;8.636;2023-04-10T00:11:47;100829.34;;;11.00;60.28
59435;BME280;45241;49.768;8.636;2023-04-10T00:14:12;100830.41;;;10.91;60.12
59435;BME280;45241;49.768;8.636;2023-04-10T00:16:37;100841.13;;;10.91;60.22
59435;BME280;45241;49.768;8.636;2023-04-10T00:19:03;100842.97;;;10.91;59.97
59435;BME280;45241;49.768;8.636;2023-04-10T00:21:28;100839.81;;;10.87;60.27
59435;BME280;45241;49.768;8.636;2023-04-10T00:23:53;100836.78;;;10.90;60.73
59435;BME280;45241;49.768;8.636;2023-04-10T00:26:18;100834.03;;;10.75;60.93
59435;BME280;45241;49.768;8.636;2023-04-10T00:28:45;100832.63;;;10.88;59.95
59435;BME280;45241;49.768;8.636;2023-04-10T00:31:10;100829.50;;;10.76;60.53
59435;BME280;45241;49.768;8.636;2023-04-10T00:33:35;100841.41;;;10.73;60.72
59435;BME280;45241;49.768;8.636;2023-04-10T00:36:00;100836.22;;;10.72;60.67
59435;BME280;45241;49.768;8.636;2023-04-10T00:38:26;100848.47;;;10.74;61.11
59435;BME280;45241;49.768;8.636;2023-04-10T00:40:51;100840.66;;;10.56;61.33
59435;BME280;45241;49.768;8.636;2023-04-10T00:43:16;100847.03;;;10.55;61.72
59435;BME280;45241;49.768;8.636;2023-04-10T00:45:44;100840.66;;;10.56;61.66
59435;BME280;45241;49.768;8.636;2023-04-10T00:48:09;100840.06;;;10.46;61.64
59435;BME280;45241;49.768;8.636;2023-04-10T00:50:34;100836.53;;;10.46;61.88
59435;BME280;45241;49.768;8.636;2023-04-10T00:53:00;100836.59;;;10.38;62.97
59435;BME280;45241;49.768;8.636;2023-04-10T00:55:26;100833.59;;;10.33;63.11
59435;BME280;45241;49.768;8.636;2023-04-10T00:57:52;100833.09;;;10.37;63.03
59435;BME280;45241;49.768;8.636;2023-04-10T01:00:19;100830.25;;;10.31;63.06
59435;BME280;45241;49.768;8.636;2023-04-10T01:02:44;100827.28;;;10.25;62.92
59435;BME280;45241;49.768;8.636;2023-04-10T01:05:10;100831.31;;;10.21;63.34
59435;BME280;45241;49.768;8.636;2023-04-10T01:10:13;100830.16;;;10.16;63.62
59435;BME280;45241;49.768;8.636;2023-04-10T01:12:42;100821.16;;;10.09;63.70
59435;BME280;45241;49.768;8.636;2023-04-10T01:15:14;100819.16;;;10.03;63.61
59435;BME280;45241;49.768;8.636;2023-04-10T01:17:44;100826.84;;;10.06;64.09
59435;BME280;45241;49.768;8.636;2023-04-10T01:20:11;100829.22;;;10.01;64.37
59435;BME280;45241;49.768;8.636;2023-04-10T01:25:24;100834.59;;;10.01;63.92
59435;BME280;45241;49.768;8.636;2023-04-10T01:28:10;100841.25;;;10.05;63.85
59435;BME280;45241;49.768;8.636;2023-04-10T01:30:39;100842.63;;;10.01;64.00
59435;BME280;45241;49.768;8.636;2023-04-10T01:33:05;100846.94;;;10.10;63.64
59435;BME280;45241;49.768;8.636;2023-04-10T01:35:32;100842.75;;;10.07;64.03
59435;BME280;45241;49.768;8.636;2023-04-10T01:37:59;100843.47;;;9.93;64.26
59435;BME280;45241;49.768;8.636;2023-04-10T01:40:25;100843.63;;;10.00;64.23
59435;BME280;45241;49.768;8.636;2023-04-10T01:42:51;100842.91;;;10.06;64.12
59435;BME280;45241;49.768;8.636;2023-04-10T01:45:17;100845.94;;;10.03;64.12
59435;BME280;45241;49.768;8.636;2023-04-10T01:47:44;100851.84;;;9.98;63.95
59435;BME280;45241;49.768;8.636;2023-04-10T01:50:09;100850.00;;;9.90;64.81
59435;BME280;45241;49.768;8.636;2023-04-10T01:52:36;100847.69;;;9.79;64.82
59435;BME280;45241;49.768;8.636;2023-04-10T01:55:01;100831.25;;;9.90;64.79
59435;BME280;45241;49.768;8.636;2023-04-10T01:57:28;100829.78;;;9.80;64.95
59435;BME280;45241;49.768;8.636;2023-04-10T01:59:55;100830.97;;;9.77;65.39
59435;BME280;45241;49.768;8.636;2023-04-10T02:02:20;100828.59;;;9.82;65.21
59435;BME280;45241;49.768;8.636;2023-04-10T02:04:46;100825.09;;;9.82;65.14
59435;BME280;45241;49.768;8.636;2023-04-10T02:10:00;100818.91;;;9.81;65.16
59435;BME280;45241;49.768;8.636;2023-04-10T02:13:09;100808.19;;;9.81;65.15
59435;BME280;45241;49.768;8.636;2023-04-10T02:15:17;100807.56;;;9.71;65.33
59435;BME280;45241;49.768;8.636;2023-04-10T02:17:44;100807.75;;;9.70;65.76
59435;BME280;45241;49.768;8.636;2023-04-10T02:20:10;100796.34;;;9.76;65.83
59435;BME280;45241;49.768;8.636;2023-04-10T02:22:35;100804.91;;;9.63;65.98
59435;BME280;45241;49.768;8.636;2023-04-10T02:25:01;100790.16;;;9.67;65.16
59435;BME280;45241;49.768;8.636;2023-04-10T02:27:34;100799.84;;;9.76;65.07
59435;BME280;45241;49.768;8.636;2023-04-10T02:30:00;100788.47;;;9.74;65.08
59435;BME280;45241;49.768;8.636;2023-04-10T02:32:27;100787.09;;;9.86;64.85
59435;BME280;45241;49.768;8.636;2023-04-10T02:34:52;100782.13;;;9.67;65.30
59435;BME280;45241;49.768;8.636;2023-04-10T02:37:17;100783.66;;;9.70;65.20
59435;BME280;45241;49.768;8.636;2023-04-10T02:39:42;100778.28;;;9.70;64.53
59435;BME280;45241;49.768;8.636;2023-04-10T02:42:08;100781.28;;;9.75;65.02
59435;BME280;45241;49.768;8.636;2023-04-10T02:44:33;100774.78;;;9.61;65.33
59435;BME280;45241;49.768;8.636;2023-04-10T02:46:58;100785.00;;;9.41;65.60
59435;BME280;45241;49.768;8.636;2023-04-10T02:49:23;100781.53;;;9.49;66.33
59435;BME280;45241;49.768;8.636;2023-04-10T02:51:48;100773.81;;;9.54;66.35
59435;BME280;45241;49.768;8.636;2023-04-10T02:54:14;100784.00;;;9.58;65.49
59435;BME280;45241;49.768;8.636;2023-04-10T02:56:39;100775.47;;;9.55;65.53
59435;BME280;45241;49.768;8.636;2023-04-10T02:59:05;100770.63;;;9.58;65.40
59435;BME280;45241;49.768;8.636;2023-04-10T03:01:31;100776.31;;;9.55;65.63
59435;BME280;45241;49.768;8.636;2023-04-10T03:03:56;100770.81;;;9.57;65.87
59435;BME280;45241;49.768;8.636;2023-04-10T03:06:22;100776.16;;;9.57;65.96
59435;BME280;45241;49.768;8.636;2023-04-10T03:08:50;100774.81;;;9.36;66.39
59435;BME280;45241;49.768;8.636;2023-04-10T03:11:15;100778.16;;;9.38;66.44
59435;BME280;45241;49.768;8.636;2023-04-10T03:13:40;100772.81;;;9.38;66.21
59435;BME280;45241;49.768;8.636;2023-04-10T03:16:06;100771.13;;;9.37;65.94
59435;BME280;45241;49.768;8.636;2023-04-10T03:18:31;100780.19;;;9.28;66.61
59435;BME280;45241;49.768;8.636;2023-04-10T03:20:58;100776.69;;;9.20;67.10
59435;BME280;45241;49.768;8.636;2023-04-10T03:23:23;100773.19;;;9.19;66.37
59435;BME280;45241;49.768;8.636;2023-04-10T03:25:49;100752.75;;;9.34;65.36
59435;BME280;45241;49.768;8.636;2023-04-10T03:28:15;100760.16;;;9.08;67.46
59435;BME280;45241;49.768;8.636;2023-04-10T03:30:40;100763.66;;;9.08;67.60
59435;BME280;45241;49.768;8.636;2023-04-10T03:33:05;100761.81;;;9.01;67.64
59435;BME280;45241;49.768;8.636;2023-04-10T03:35:30;100761.31;;;9.14;67.14
59435;BME280;45241;49.768;8.636;2023-04-10T03:37:56;100758.66;;;9.05;67.58
59435;BME280;45241;49.768;8.636;2023-04-10T03:40:21;100757.81;;;8.97;67.71
59435;BME280;45241;49.768;8.636;2023-04-10T03:42:46;100754.63;;;9.01;67.93
59435;BME280;45241;49.768;8.636;2023-04-10T03:45:11;100749.63;;;8.98;68.05
59435;BME280;45241;49.768;8.636;2023-04-10T03:47:37;100749.81;;;8.81;68.79
59435;BME280;45241;49.768;8.636;2023-04-10T03:50:02;100747.78;;;8.99;67.67
59435;BME280;45241;49.768;8.636;2023-04-10T03:52:27;100749.28;;;9.01;67.40
59435;BME280;45241;49.768;8.636;2023-04-10T03:54:53;100750.13;;;8.86;68.16
59435;BME280;45241;49.768;8.636;2023-04-10T03:57:18;100750.97;;;8.94;67.60
59435;BME280;45241;49.768;8.636;2023-04-10T03:59:45;100747.63;;;9.08;66.88
59435;BME280;45241;49.768;8.636;2023-04-10T04:02:10;100755.16;;;9.05;67.52
59435;BME280;45241;49.768;8.636;2023-04-10T04:04:35;100760.50;;;8.97;67.41
59435;BME280;45241;49.768;8.636;2023-04-10T04:07:00;100758.66;;;8.97;67.22
59435;BME280;45241;49.768;8.636;2023-04-10T04:09:26;100755.16;;;8.97;67.45
59435;BME280;45241;49.768;8.636;2023-04-10T04:11:51;100753.47;;;8.96;67.71
59435;BME280;45241;49.768;8.636;2023-04-10T04:14:16;100742.78;;;8.88;68.22
59435;BME280;45241;49.768;8.636;2023-04-10T04:16:41;100746.81;;;8.92;67.56
59435;BME280;45241;49.768;8.636;2023-04-10T04:19:06;100747.13;;;8.89;67.85
59435;BME280;45241;49.768;8.636;2023-04-10T04:21:32;100738.44;;;8.87;68.05
59435;BME280;45241;49.768;8.636;2023-04-10T04:23:57;100735.44;;;9.06;66.79
59435;BME280;45241;49.768;8.636;2023-04-10T04:26:22;100740.09;;;8.88;68.16
59435;BME280;45241;49.768;8.636;2023-04-10T04:28:49;100738.63;;;8.93;68.13
59435;BME280;45241;49.768;8.636;2023-04-10T04:31:14;100744.47;;;8.81;68.52
59435;BME280;45241;49.768;8.636;2023-04-10T04:33:40;100749.47;;;8.92;67.65
59435;BME280;45241;49.768;8.636;2023-04-10T04:36:05;100751.81;;;8.87;68.38
59435;BME280;45241;49.768;8.636;2023-04-10T04:38:30;100757.47;;;8.75;68.74
59435;BME280;45241;49.768;8.636;2023-04-10T04:40:55;100758.97;;;8.78;68.77
59435;BME280;45241;49.768;8.636;2023-04-10T04:43:21;100760.00;;;8.69;68.96
59435;BME280;45241;49.768;8.636;2023-04-10T04:45:46;100758.84;;;8.79;67.77
59435;BME280;45241;49.768;8.636;2023-04-10T04:48:11;100760.16;;;8.67;69.35
59435;BME280;45241;49.768;8.636;2023-04-10T04:50:38;100762.66;;;8.69;69.40
59435;BME280;45241;49.768;8.636;2023-04-10T04:53:03;100764.69;;;8.67;69.78
59435;BME280;45241;49.768;8.636;2023-04-10T04:55:29;100764.50;;;8.60;69.59
59435;BME280;45241;49.768;8.636;2023-04-10T04:57:54;100772.50;;;8.76;68.90
59435;BME280;45241;49.768;8.636;2023-04-10T05:00:19;100778.53;;;8.62;68.99
59435;BME280;45241;49.768;8.636;2023-04-10T05:02:45;100773.03;;;8.72;69.01
59435;BME280;45241;49.768;8.636;2023-04-10T05:05:10;100771.03;;;8.66;69.33
59435;BME280;45241;49.768;8.636;2023-04-10T05:07:35;100773.53;;;8.67;69.76
59435;BME280;45241;49.768;8.636;2023-04-10T05:10:00;100766.84;;;8.79;68.87
59435;BME280;45241;49.768;8.636;2023-04-10T05:12:26;100770.16;;;8.57;69.85
59435;BME280;45241;49.768;8.636;2023-04-10T05:14:51;100768.34;;;8.66;68.78
59435;BME280;45241;49.768;8.636;2023-04-10T05:17:17;100772.16;;;8.63;69.78
59435;BME280;45241;49.768;8.636;2023-04-10T05:19:42;100763.97;;;8.65;69.17
59435;BME280;45241;49.768;8.636;2023-04-10T05:22:07;100767.81;;;8.62;70.17
59435;BME280;45241;49.768;8.636;2023-04-10T05:24:32;100771.50;;;8.77;69.36
59435;BME280;45241;49.768;8.636;2023-04-10T05:26:57;100776.34;;;8.74;69.67
59435;BME280;45241;49.768;8.636;2023-04-10T05:29:23;100771.50;;;8.77;69.49
59435;BME280;45241;49.768;8.636;2023-04-10T05:31:48;100769.34;;;8.89;69.51
59435;BME280;45241;49.768;8.636;2023-04-10T05:34:14;100764.81;;;8.90;70.23
59435;BME280;45241;49.768;8.636;2023-04-10T05:36:39;100768.34;;;8.82;70.79
59435;BME280;45241;49.768;8.636;2023-04-10T05:39:04;100770.34;;;8.88;70.41
59435;BME280;45241;49.768;8.636;2023-04-10T05:41:29;100777.38;;;8.81;71.91
59435;BME280;45241;49.768;8.636;2023-04-10T05:43:55;100769.69;;;8.86;71.02
59435;BME280;45241;49.768;8.636;2023-04-10T05:46:20;100774.88;;;8.96;71.31
59435;BME280;45241;49.768;8.636;2023-04-10T05:48:45;100784.38;;;8.98;71.40
59435;BME280;45241;49.768;8.636;2023-04-10T05:51:10;100782.56;;;9.07;70.42
59435;BME280;45241;49.768;8.636;2023-04-10T05:53:35;100778.00;;;9.16;70.25
59435;BME280;45241;49.768;8.636;2023-04-10T05:56:00;100784.91;;;9.18;70.79
59435;BME280;45241;49.768;8.636;2023-04-10T05:58:26;100788.06;;;9.22;71.34
59435;BME280;45241;49.768;8.636;2023-04-10T06:00:52;100784.19;;;9.32;71.09
59435;BME280;45241;49.768;8.636;2023-04-10T06:03:17;100788.19;;;9.28;71.12
59435;BME280;45241;49.768;8.636;2023-04-10T06:05:43;100779.34;;;9.28;72.19
59435;BME280;45241;49.768;8.636;2023-04-10T06:08:09;100775.97;;;9.42;69.16
59435;BME280;45241;49.768;8.636;2023-04-10T06:10:35;100772.31;;;9.51;69.58
59435;BME280;45241;49.768;8.636;2023-04-10T06:13:00;100768.78;;;9.59;69.41
59435;BME280;45241;49.768;8.636;2023-04-10T06:15:25;100768.25;;;9.63;70.49
59435;BME280;45241;49.768;8.636;2023-04-10T06:17:51;100765.41;;;9.65;70.53
59435;BME280;45241;49.768;8.636;2023-04-10T06:20:17;100761.53;;;9.76;73.22
59435;BME280;45241;49.768;8.636;2023-04-10T06:22:43;100761.66;;;9.82;72.24
59435;BME280;45241;49.768;8.636;2023-04-10T06:25:08;100766.63;;;9.93;70.60
59435;BME280;45241;49.768;8.636;2023-04-10T06:27:33;100755.25;;;9.91;67.18
59435;BME280;45241;49.768;8.636;2023-04-10T06:29:59;100755.91;;;10.02;63.63
59435;BME280;45241;49.768;8.636;2023-04-10T06:32:25;100753.66;;;10.13;69.28
59435;BME280;45241;49.768;8.636;2023-04-10T06:34:50;100750.13;;;10.44;68.72
59435;BME280;45241;49.768;8.636;2023-04-10T06:37:15;100745.81;;;10.58;67.31
59435;BME280;45241;49.768;8.636;2023-04-10T06:39:40;100748.81;;;10.63;69.37
59435;BME280;45241;49.768;8.636;2023-04-10T06:42:06;100752.25;;;10.71;68.03
59435;BME280;45241;49.768;8.636;2023-04-10T06:44:31;100750.53;;;10.78;68.69
59435;BME280;45241;49.768;8.636;2023-04-10T06:46:56;100747.66;;;10.80;67.62
59435;BME280;45241;49.768;8.636;2023-04-10T06:49:21;100741.50;;;10.94;66.43
59435;BME280;45241;49.768;8.636;2023-04-10T06:51:48;100747.09;;;11.07;64.89
59435;BME280;45241;49.768;8.636;2023-04-10T06:54:13;100748.69;;;11.17;67.18
59435;BME280;45241;49.768;8.636;2023-04-10T06:56:38;100749.09;;;11.28;65.14
59435;BME280;45241;49.768;8.636;2023-04-10T06:59:03;100748.00;;;11.37;63.63
59435;BME280;45241;49.768;8.636;2023-04-10T07:01:29;100753.75;;;11.49;65.61
59435;BME280;45241;49.768;8.636;2023-04-10T07:03:54;100744.78;;;11.57;65.78
59435;BME280;45241;49.768;8.636;2023-04-10T07:06:20;100748.94;;;11.59;62.25
59435;BME280;45241;49.768;8.636;2023-04-10T07:08:46;100746.25;;;11.74;59.68
59435;BME280;45241;49.768;8.636;2023-04-10T07:11:12;100744.28;;;11.83;58.75
59435;BME280;45241;49.768;8.636;2023-04-10T07:13:37;100747.59;;;11.99;59.04
59435;BME280;45241;49.768;8.636;2023-04-10T07:16:04;100740.72;;;12.12;57.16
59435;BME280;45241;49.768;8.636;2023-04-10T07:18:29;100741.69;;;12.25;57.88
59435;BME280;45241;49.768;8.636;2023-04-10T07:20:55;100745.66;;;12.29;57.50
59435;BME280;45241;49.768;8.636;2023-04-10T07:23:20;100736.31;;;12.25;58.54
59435;BME280;45241;49.768;8.636;2023-04-10T07:25:46;100743.84;;;12.51;58.13
59435;BME280;45241;49.768;8.636;2023-04-10T07:28:11;100748.00;;;12.75;56.99
59435;BME280;45241;49.768;8.636;2023-04-10T07:30:36;100739.69;;;12.70;56.92
59435;BME280;45241;49.768;8.636;2023-04-10T07:33:02;100736.72;;;12.86;57.32
59435;BME280;45241;49.768;8.636;2023-04-10T07:35:27;100728.53;;;12.95;53.55
59435;BME280;45241;49.768;8.636;2023-04-10T07:37:55;100726.84;;;13.15;53.35
59435;BME280;45241;49.768;8.636;2023-04-10T07:40:20;100718.66;;;13.30;51.88
59435;BME280;45241;49.768;8.636;2023-04-10T07:42:45;100716.88;;;13.43;52.04
59435;BME280;45241;49.768;8.636;2023-04-10T07:45:11;100720.69;;;13.56;51.11
59435;BME280;45241;49.768;8.636;2023-04-10T07:47:36;100721.16;;;13.72;50.90
59435;BME280;45241;49.768;8.636;2023-04-10T07:50:02;100721.56;;;13.69;49.94
59435;BME280;45241;49.768;8.636;2023-04-10T07:52:28;100730.81;;;13.88;49.47
59435;BME280;45241;49.768;8.636;2023-04-10T07:54:53;100722.91;;;13.87;50.01
59435;BME280;45241;49.768;8.636;2023-04-10T07:57:18;100728.31;;;13.93;49.18
59435;BME280;45241;49.768;8.636;2023-04-10T07:59:43;100724.22;;;14.10;48.67
59435;BME280;45241;49.768;8.636;2023-04-10T08:02:08;100726.53;;;14.14;49.66
59435;BME280;45241;49.768;8.636;2023-04-10T08:04:34;100724.06;;;14.19;48.81
59435;BME280;45241;49.768;8.636;2023-04-10T08:06:59;100719.53;;;14.26;47.84
59435;BME280;45241;49.768;8.636;2023-04-10T08:09:25;100717.91;;;14.31;47.14
59435;BME280;45241;49.768;8.636;2023-04-10T08:11:50;100724.16;;;14.45;47.25
59435;BME280;45241;49.768;8.636;2023-04-10T08:14:15;100707.97;;;14.45;46.63
59435;BME280;45241;49.768;8.636;2023-04-10T08:16:41;100704.50;;;14.78;46.94
59435;BME280;45241;49.768;8.636;2023-04-10T08:19:06;100709.47;;;14.67;46.94
59435;BME280;45241;49.768;8.636;2023-04-10T08:21:31;100714.44;;;14.71;45.32
59435;BME280;45241;49.768;8.636;2023-04-10T08:23:58;100702.41;;;14.93;46.73
59435;BME280;45241;49.768;8.636;2023-04-10T08:26:24;100696.78;;;15.08;46.76
59435;BME280;45241;49.768;8.636;2023-04-10T08:28:50;100690.56;;;15.07;45.50
59435;BME280;45241;49.768;8.636;2023-04-10T08:31:16;100695.31;;;15.18;46.78
59435;BME280;45241;49.768;8.636;2023-04-10T08:33:42;100684.25;;;15.40;45.16
59435;BME280;45241;49.768;8.636;2023-04-10T08:36:07;100680.75;;;15.33;45.66
59435;BME280;45241;49.768;8.636;2023-04-10T08:38:32;100689.63;;;15.60;45.59
59435;BME280;45241;49.768;8.636;2023-04-10T08:40:58;100675.09;;;15.54;43.13
59435;BME280;45241;49.768;8.636;2023-04-10T08:43:23;100670.44;;;15.74;43.42
59435;BME280;45241;49.768;8.636;2023-04-10T08:45:50;100669.13;;;15.90;43.10
59435;BME280;45241;49.768;8.636;2023-04-10T08:48:15;100673.47;;;15.98;44.09
59435;BME280;45241;49.768;8.636;2023-04-10T08:50:42;100663.13;;;16.20;44.60
59435;BME280;45241;49.768;8.636;2023-04-10T08:53:13;100664.91;;;16.39;42.96
59435;BME280;45241;49.768;8.636;2023-04-10T08:55:41;100669.03;;;16.41;43.70
59435;BME280;45241;49.768;8.636;2023-04-10T08:58:08;100667.53;;;16.14;42.01
59435;BME280;45241;49.768;8.636;2023-04-10T09:00:34;100661.31;;;16.13;42.25
59435;BME280;45241;49.768;8.636;2023-04-10T09:03:02;100665.38;;;16.29;43.09
59435;BME280;45241;49.768;8.636;2023-04-10T09:05:28;100658.66;;;16.38;41.89
59435;BME280;45241;49.768;8.636;2023-04-10T09:07:54;100658.72;;;16.57;42.05
59435;BME280;45241;49.768;8.636;2023-04-10T09:10:19;100657.41;;;16.66;41.15
59435;BME280;45241;49.768;8.636;2023-04-10T09:12:45;100646.03;;;16.82;40.91
59435;BME280;45241;49.768;8.636;2023-04-10T09:15:11;100635.75;;;16.91;40.35
59435;BME280;45241;49.768;8.636;2023-04-10T09:17:37;100637.34;;;16.98;40.67
59435;BME280;45241;49.768;8.636;2023-04-10T09:20:21;100628.06;;;17.13;40.26
59435;BME280;45241;49.768;8.636;2023-04-10T09:22:46;100630.44;;;17.02;39.18
59435;BME280;45241;49.768;8.636;2023-04-10T09:25:28;100616.53;;;17.17;39.73
59435;BME280;45241;49.768;8.636;2023-04-10T09:28:04;100617.81;;;17.15;39.19
59435;BME280;45241;49.768;8.636;2023-04-10T09:30:37;100618.19;;;17.18;39.71
59435;BME280;45241;49.768;8.636;2023-04-10T09:33:25;100608.94;;;17.26;39.84
59435;BME280;45241;49.768;8.636;2023-04-10T09:35:51;100594.84;;;17.17;40.40
59435;BME280;45241;49.768;8.636;2023-04-10T09:38:17;100599.69;;;17.15;39.05
59435;BME280;45241;49.768;8.636;2023-04-10T09:40:43;100605.53;;;17.30;38.18
59435;BME280;45241;49.768;8.636;2023-04-10T09:45:55;100590.47;;;17.35;38.80
59435;BME280;45241;49.768;8.636;2023-04-10T09:48:22;100592.19;;;17.47;38.91
59435;BME280;45241;49.768;8.636;2023-04-10T09:50:47;100597.78;;;17.34;38.40
59435;BME280;45241;49.768;8.636;2023-04-10T09:53:13;100587.69;;;17.41;38.41
59435;BME280;45241;49.768;8.636;2023-04-10T09:55:39;100581.34;;;17.47;39.16
59435;BME280;45241;49.768;8.636;2023-04-10T09:58:05;100579.88;;;17.51;37.62
59435;BME280;45241;49.768;8.636;2023-04-10T10:00:32;100573.44;;;17.64;37.84
59435;BME280;45241;49.768;8.636;2023-04-10T10:03:01;100561.16;;;17.80;38.75
59435;BME280;45241;49.768;8.636;2023-04-10T10:05:28;100565.72;;;18.09;39.32
59435;BME280;45241;49.768;8.636;2023-04-10T10:07:55;100555.81;;;18.03;37.42
59435;BME280;45241;49.768;8.636;2023-04-10T10:10:20;100556.56;;;17.80;36.89
59435;BME280;45241;49.768;8.636;2023-04-10T10:12:53;100556.00;;;17.72;37.49
59435;BME280;45241;49.768;8.636;2023-04-10T10:17:58;100555.06;;;17.96;38.00
59435;BME280;45241;49.768;8.636;2023-04-10T10:20:25;100544.72;;;18.28;36.93
59435;BME280;45241;49.768;8.636;2023-04-10T10:22:50;100548.19;;;18.59;36.48
59435;BME280;45241;49.768;8.636;2023-04-10T10:25:17;100545.69;;;18.34;37.24
59435;BME280;45241;49.768;8.636;2023-04-10T10:27:43;100540.97;;;18.41;36.18
59435;BME280;45241;49.768;8.636;2023-04-10T10:30:10;100539.22;;;18.35;36.70
59435;BME280;45241;49.768;8.636;2023-04-10T10:32:36;100529.19;;;18.59;37.71
59435;BME280;45241;49.768;8.636;2023-04-10T10:35:03;100534.00;;;18.33;36.78
59435;BME280;45241;49.768;8.636;2023-04-10T10:37:28;100526.81;;;18.62;36.95
59435;BME280;45241;49.768;8.636;2023-04-10T10:40:11;100526.34;;;18.89;38.37
59435;BME280;45241;49.768;8.636;2023-04-10T10:47:29;100513.22;;;19.37;34.81
59435;BME280;45241;49.768;8.636;2023-04-10T10:50:01;100511.53;;;19.48;35.78
59435;BME280;45241;49.768;8.636;2023-04-10T10:52:43;100518.31;;;19.74;36.05
59435;BME280;45241;49.768;8.636;2023-04-10T10:57:50;100504.19;;;19.49;35.24
59435;BME280;45241;49.768;8.636;2023-04-10T11:00:18;100499.69;;;19.71;36.20
59435;BME280;45241;49.768;8.636;2023-04-10T11:02:44;100503.25;;;20.00;36.60
59435;BME280;45241;49.768;8.636;2023-04-10T11:05:09;100509.56;;;20.06;34.56
59435;BME280;45241;49.768;8.636;2023-04-10T11:10:30;100495.63;;;20.19;35.38
59435;BME280;45241;49.768;8.636;2023-04-10T11:13:13;100482.75;;;20.31;34.20
59435;BME280;45241;49.768;8.636;2023-04-10T11:15:39;100488.38;;;20.41;34.88
59435;BME280;45241;49.768;8.636;2023-04-10T11:18:05;100484.44;;;19.99;33.28
59435;BME280;45241;49.768;8.636;2023-04-10T11:20:31;100472.53;;;20.38;33.56
59435;BME280;45241;49.768;8.636;2023-04-10T11:23:16;100463.03;;;20.41;34.41
59435;BME280;45241;49.768;8.636;2023-04-10T11:25:45;100460.00;;;20.76;33.21
59435;BME280;45241;49.768;8.636;2023-04-10T11:28:18;100455.13;;;21.00;34.15
59435;BME280;45241;49.768;8.636;2023-04-10T11:30:55;100440.34;;;20.96;33.99
59435;BME280;45241;49.768;8.636;2023-04-10T11:33:20;100429.59;;;21.06;33.75
59435;BME280;45241;49.768;8.636;2023-04-10T11:35:45;100441.63;;;20.88;33.65
59435;BME280;45241;49.768;8.636;2023-04-10T11:38:15;100438.03;;;21.04;33.55
59435;BME280;45241;49.768;8.636;2023-04-10T11:40:53;100436.06;;;21.27;34.31
59435;BME280;45241;49.768;8.636;2023-04-10T11:43:18;100429.28;;;21.02;33.49
59435;BME280;45241;49.768;8.636;2023-04-10T11:45:44;100425.81;;;21.12;33.20
59435;BME280;45241;49.768;8.636;2023-04-10T11:48:09;100424.19;;;21.65;34.08
59435;BME280;45241;49.768;8.636;2023-04-10T11:50:35;100433.69;;;21.57;35.55
59435;BME280;45241;49.768;8.636;2023-04-10T11:53:00;100427.94;;;21.05;34.40
59435;BME280;45241;49.768;8.636;2023-04-10T11:55:35;100415.44;;;20.87;34.76
59435;BME280;45241;49.768;8.636;2023-04-10T11:58:01;100413.09;;;20.52;34.87
59435;BME280;45241;49.768;8.636;2023-04-10T12:00:26;100401.13;;;20.75;35.86
59435;BME280;45241;49.768;8.636;2023-04-10T12:02:52;100406.13;;;21.32;35.47
59435;BME280;45241;49.768;8.636;2023-04-10T12:05:17;100399.88;;;21.31;34.10
59435;BME280;45241;49.768;8.636;2023-04-10T12:07:42;100393.78;;;20.97;34.96
59435;BME280;45241;49.768;8.636;2023-04-10T12:10:08;100395.78;;;20.80;35.51
59435;BME280;45241;49.768;8.636;2023-04-10T12:12:36;100393.00;;;20.58;36.49
59435;BME280;45241;49.768;8.636;2023-04-10T12:15:02;100398.25;;;20.43;35.86
59435;BME280;45241;49.768;8.636;2023-04-10T12:17:27;100395.53;;;20.43;35.71
59435;BME280;45241;49.768;8.636;2023-04-10T12:19:52;100390.59;;;20.40;36.14
59435;BME280;45241;49.768;8.636;2023-04-10T12:22:18;100382.13;;;20.58;36.17
59435;BME280;45241;49.768;8.636;2023-04-10T12:29:46;100375.94;;;20.24;35.75
59435;BME280;45241;49.768;8.636;2023-04-10T12:32:12;100370.06;;;20.32;36.09
59435;BME280;45241;49.768;8.636;2023-04-10T12:34:37;100372.63;;;20.39;36.01
59435;BME280;45241;49.768;8.636;2023-04-10T12:37:03;100365.50;;;20.60;36.20
59435;BME280;45241;49.768;8.636;2023-04-10T12:39:28;100371.84;;;20.87;36.15
59435;BME280;45241;49.768;8.636;2023-04-10T12:42:09;100370.31;;;20.69;35.52
59435;BME280;45241;49.768;8.636;2023-04-10T12:44:34;100370.56;;;20.68;35.81
59435;BME280;45241;49.768;8.636;2023-04-10T12:47:00;100352.84;;;20.48;37.06
59435;BME280;45241;49.768;8.636;2023-04-10T12:49:25;100347.41;;;20.48;36.31
59435;BME280;45241;49.768;8.636;2023-04-10T12:51:51;100342.81;;;20.71;36.20
59435;BME280;45241;49.768;8.636;2023-04-10T12:54:26;100347.66;;;20.91;36.08
59435;BME280;45241;49.768;8.636;2023-04-10T12:56:52;100344.03;;;20.85;36.81
59435;BME280;45241;49.768;8.636;2023-04-10T12:59:17;100345.66;;;20.81;36.17
59435;BME280;45241;49.768;8.636;2023-04-10T13:01:43;100346.31;;;20.93;36.30
59435;BME280;45241;49.768;8.636;2023-04-10T13:04:08;100340.41;;;21.01;35.91
59435;BME280;45241;49.768;8.636;2023-04-10T13:06:44;100327.91;;;21.05;35.72
59435;BME280;45241;49.768;8.636;2023-04-10T13:09:10;100323.00;;;21.02;35.52
59435;BME280;45241;49.768;8.636;2023-04-10T13:11:36;100329.88;;;20.83;35.76
59435;BME280;45241;49.768;8.636;2023-04-10T13:14:01;100319.06;;;21.20;36.15
59435;BME280;45241;49.768;8.636;2023-04-10T13:16:26;100325.91;;;21.28;36.90
59435;BME280;45241;49.768;8.636;2023-04-10T13:18:51;100317.47;;;20.97;34.15